Time;durP1;ratioP1;P1;durP2;ratioP2;P2;SDS_P1;SDS_P2;PMS_P1;PMS_P2;Temp;Humidity;BMP_temperature;BMP_pressure;BME280_temperature;BME280_humidity;BME280_pressure;Samples;Min_cycle;Max_cycle;Signal;HPM_P1;HPM_P2
2021/12/17 00:04:39;;;;;;;15.25;6.68;;;8.20;92.20;;;;;;4948831;28;20047;-68
2021/12/17 00:07:07;;;;;;;16.63;6.53;;;8.20;92.10;;;;;;4949088;28;20031;-68
2021/12/17 00:09:33;;;;;;;11.30;5.90;;;8.20;92.00;;;;;;4955367;28;20031;-67
2021/12/17 00:11:59;;;;;;;12.75;5.85;;;8.20;92.10;;;;;;4957511;28;20039;-67
2021/12/17 00:14:29;;;;;;;12.93;5.97;;;8.20;92.00;;;;;;4956029;28;20030;-67
2021/12/17 00:17:01;;;;;;;14.95;5.78;;;8.20;92.00;;;;;;4966459;28;20692;-67
2021/12/17 00:49:03;;;;;;;14.13;6.25;;;8.10;92.10;;;;;;4965583;28;20031;-67
2021/12/17 00:54:21;;;;;;;15.20;6.72;;;8.10;92.20;;;;;;4961342;28;20431;-67
2021/12/17 00:56:51;;;;;;;14.82;6.10;;;8.10;92.30;;;;;;4965741;28;20047;-67
2021/12/17 00:59:17;;;;;;;13.50;5.47;;;8.20;92.50;;;;;;4958935;28;20038;-67
2021/12/17 01:01:44;;;;;;;10.27;5.30;;;8.20;92.20;;;;;;4964051;28;20042;-68
2021/12/17 01:04:11;;;;;;;16.60;6.88;;;8.10;92.00;;;;;;4949644;28;20412;-67
2021/12/17 01:06:39;;;;;;;18.17;6.60;;;8.10;92.10;;;;;;4973923;28;20058;-67
2021/12/17 01:09:07;;;;;;;15.00;6.65;;;8.10;92.20;;;;;;4954964;28;20699;-67
2021/12/17 01:11:35;;;;;;;16.65;6.57;;;8.20;92.20;;;;;;4966430;28;20031;-67
2021/12/17 01:14:09;;;;;;;10.50;5.85;;;8.10;92.20;;;;;;4946989;28;20117;-68
2021/12/17 01:16:55;;;;;;;14.52;6.05;;;8.10;92.10;;;;;;4950360;28;20053;-68
2021/12/17 01:25:20;;;;;;;16.40;6.10;;;8.10;92.20;;;;;;4971570;28;20035;-68
2021/12/17 01:42:41;;;;;;;12.02;5.38;;;8.10;92.10;;;;;;4960556;28;20046;-68
2021/12/17 01:45:08;;;;;;;14.70;6.20;;;8.10;92.00;;;;;;4951691;28;20031;-67
2021/12/17 01:47:34;;;;;;;17.90;7.28;;;8.10;92.00;;;;;;4958682;28;20483;-67
2021/12/17 02:01:00;;;;;;;17.63;5.10;;;8.00;91.60;;;;;;4974057;28;20027;-68
2021/12/17 02:03:26;;;;;;;16.65;6.13;;;8.00;91.70;;;;;;4968447;28;20054;-67
2021/12/17 02:05:53;;;;;;;7.35;4.45;;;8.00;91.70;;;;;;4973211;28;20767;-67
2021/12/17 02:08:19;;;;;;;13.30;6.05;;;8.00;91.90;;;;;;4965004;28;20034;-68
2021/12/17 02:22:09;;;;;;;8.80;5.03;;;8.00;91.80;;;;;;4964054;28;20090;-67
2021/12/17 02:32:47;;;;;;;19.40;5.65;;;8.00;91.80;;;;;;4971515;28;20559;-67
2021/12/17 02:37:46;;;;;;;16.55;5.75;;;7.90;91.90;;;;;;4965544;28;20109;-67
2021/12/17 02:46:59;;;;;;;15.27;5.82;;;8.00;91.80;;;;;;4956539;28;20301;-67
2021/12/17 02:49:28;;;;;;;12.68;5.28;;;7.90;91.80;;;;;;4965735;28;20050;-67
2021/12/17 02:51:55;;;;;;;12.73;5.53;;;7.90;91.90;;;;;;4970843;28;20117;-67
2021/12/17 02:54:21;;;;;;;20.83;6.50;;;8.00;91.70;;;;;;4958672;28;20126;-67
2021/12/17 02:56:47;;;;;;;11.73;4.75;;;7.90;91.70;;;;;;4967000;28;20919;-67
2021/12/17 02:59:13;;;;;;;18.35;5.38;;;7.90;91.70;;;;;;4952443;28;20057;-67
2021/12/17 03:01:44;;;;;;;18.92;6.00;;;7.80;91.70;;;;;;4950573;28;20063;-67
2021/12/17 03:04:12;;;;;;;16.30;5.53;;;7.90;91.80;;;;;;4948474;28;20085;-68
2021/12/17 03:06:41;;;;;;;16.48;5.97;;;7.90;91.90;;;;;;4963424;28;20062;-68
2021/12/17 03:09:07;;;;;;;16.23;5.93;;;8.00;91.80;;;;;;4945897;28;20034;-68
2021/12/17 03:11:33;;;;;;;17.42;6.70;;;7.90;91.70;;;;;;4972039;28;20510;-68
2021/12/17 03:13:58;;;;;;;16.77;5.00;;;7.80;91.80;;;;;;4970293;28;20031;-68
2021/12/17 03:16:35;;;;;;;15.85;5.07;;;7.90;91.90;;;;;;4964330;28;20078;-68
2021/12/17 03:19:08;;;;;;;14.00;5.60;;;7.80;91.90;;;;;;4952660;28;20037;-68
2021/12/17 03:24:21;;;;;;;22.80;6.15;;;7.90;91.60;;;;;;4967796;28;20079;-68
2021/12/17 03:26:49;;;;;;;16.05;5.97;;;7.90;91.60;;;;;;4971075;28;20706;-68
2021/12/17 03:29:15;;;;;;;11.70;5.50;;;7.90;91.60;;;;;;4963070;28;20487;-67
2021/12/17 03:31:45;;;;;;;17.30;5.57;;;7.90;91.50;;;;;;4967389;28;20579;-68
2021/12/17 03:34:21;;;;;;;16.35;5.75;;;7.90;91.70;;;;;;4963814;28;20125;-68
2021/12/17 03:36:56;;;;;;;16.42;5.82;;;7.90;91.60;;;;;;4946090;28;20053;-68
2021/12/17 03:39:24;;;;;;;14.38;5.80;;;7.90;91.60;;;;;;4957735;28;20038;-68
2021/12/17 03:41:52;;;;;;;15.20;5.15;;;7.90;91.60;;;;;;4967769;28;20031;-68
2021/12/17 03:44:25;;;;;;;16.10;6.90;;;8.00;91.60;;;;;;4951986;28;20032;-67
2021/12/17 03:47:11;;;;;;;9.52;5.78;;;7.90;91.60;;;;;;4949656;28;20046;-68
2021/12/17 03:49:59;;;;;;;13.45;5.47;;;8.00;91.60;;;;;;4959666;28;20584;-68
2021/12/17 03:52:25;;;;;;;12.43;5.18;;;8.00;91.60;;;;;;4969940;28;20100;-68
2021/12/17 03:54:51;;;;;;;17.40;5.75;;;8.00;91.80;;;;;;4968070;28;20031;-68
2021/12/17 03:57:18;;;;;;;13.50;5.50;;;8.00;91.60;;;;;;4949967;28;20034;-68
2021/12/17 03:59:47;;;;;;;13.23;5.30;;;8.00;91.60;;;;;;4967233;28;20031;-68
2021/12/17 04:02:17;;;;;;;19.30;5.82;;;8.00;91.70;;;;;;4946521;28;20702;-68
2021/12/17 04:04:44;;;;;;;13.23;5.50;;;8.00;91.60;;;;;;4957983;28;20090;-68
2021/12/17 04:07:44;;;;;;;16.67;5.85;;;8.00;91.60;;;;;;4955281;28;20122;-68
2021/12/17 04:10:40;;;;;;;15.23;5.57;;;8.00;91.50;;;;;;4949248;28;20097;-68
2021/12/17 04:16:00;;;;;;;16.15;5.43;;;8.00;91.60;;;;;;4961058;28;20035;-68
2021/12/17 04:18:27;;;;;;;11.85;5.15;;;8.00;91.50;;;;;;4964726;28;20415;-68
2021/12/17 04:20:53;;;;;;;12.27;4.95;;;7.90;91.50;;;;;;4942337;28;20520;-68
2021/12/17 04:23:20;;;;;;;12.05;4.97;;;8.00;91.60;;;;;;4964185;28;20039;-68
2021/12/17 04:25:48;;;;;;;14.38;5.70;;;8.00;91.60;;;;;;4969609;28;20785;-68
2021/12/17 04:28:15;;;;;;;12.32;5.63;;;8.00;91.60;;;;;;4960943;28;20082;-68
2021/12/17 04:30:41;;;;;;;12.15;5.32;;;8.00;91.60;;;;;;4963066;28;20038;-67
2021/12/17 04:33:08;;;;;;;17.40;5.63;;;8.00;91.60;;;;;;4946990;28;20515;-67
2021/12/17 04:35:34;;;;;;;20.10;6.15;;;8.00;91.50;;;;;;4967442;28;20472;-68
2021/12/17 04:38:06;;;;;;;11.57;5.25;;;8.10;91.40;;;;;;4970363;28;20076;-68
2021/12/17 04:40:32;;;;;;;12.98;5.25;;;8.10;91.40;;;;;;4964656;28;20038;-68
2021/12/17 04:45:27;;;;;;;18.10;6.22;;;8.00;91.50;;;;;;4968178;28;20050;-68
2021/12/17 04:59:22;;;;;;;10.10;5.43;;;8.00;91.50;;;;;;4961746;28;20139;-67
2021/12/17 05:05:37;;;;;;;14.88;4.95;;;8.10;91.50;;;;;;4956957;28;20050;-67
2021/12/17 05:08:16;;;;;;;13.00;4.90;;;8.10;91.60;;;;;;4969697;28;20074;-67
2021/12/17 05:19:10;;;;;;;18.00;5.53;;;8.10;91.60;;;;;;4975449;28;20039;-67
2021/12/17 05:21:38;;;;;;;10.18;5.43;;;8.10;91.50;;;;;;4969354;28;20570;-67
2021/12/17 05:24:05;;;;;;;16.98;5.28;;;8.10;91.60;;;;;;4969031;28;20035;-68
2021/12/17 05:26:31;;;;;;;10.18;5.47;;;8.10;91.50;;;;;;4968935;28;20039;-67
2021/12/17 05:28:58;;;;;;;19.45;6.07;;;8.10;91.50;;;;;;4963549;28;20756;-67
2021/12/17 05:31:39;;;;;;;15.00;6.90;;;8.10;91.50;;;;;;4972974;28;20041;-67
2021/12/17 05:34:04;;;;;;;14.02;5.38;;;8.10;91.50;;;;;;4973718;28;20034;-67
2021/12/17 05:36:44;;;;;;;15.38;5.60;;;8.10;91.50;;;;;;4967840;28;20031;-67
2021/12/17 05:39:17;;;;;;;12.95;5.97;;;8.10;91.50;;;;;;4951966;28;20061;-67
2021/12/17 05:41:45;;;;;;;11.40;5.22;;;8.10;91.50;;;;;;4962826;28;20035;-67
2021/12/17 05:44:27;;;;;;;17.00;6.57;;;8.10;91.50;;;;;;4954487;28;20031;-67
2021/12/17 05:46:54;;;;;;;16.90;5.80;;;8.10;91.60;;;;;;4974327;28;20038;-67
2021/12/17 05:49:24;;;;;;;13.30;6.05;;;8.10;91.60;;;;;;4946620;28;20062;-67
2021/12/17 05:51:53;;;;;;;12.95;5.70;;;8.20;91.60;;;;;;4970063;28;20051;-67
2021/12/17 05:54:20;;;;;;;15.13;6.20;;;8.20;91.50;;;;;;4962148;28;20073;-67
2021/12/17 05:56:45;;;;;;;11.25;5.82;;;8.20;91.50;;;;;;4960905;28;20042;-67
2021/12/17 05:59:12;;;;;;;12.48;5.88;;;8.20;91.50;;;;;;4960678;28;20034;-68
2021/12/17 06:01:38;;;;;;;13.27;6.45;;;8.20;91.40;;;;;;4968672;28;20027;-67
2021/12/17 06:04:05;;;;;;;11.07;6.13;;;8.20;91.50;;;;;;4970972;28;20557;-67
2021/12/17 06:06:45;;;;;;;14.55;6.50;;;8.20;91.40;;;;;;4965498;28;20035;-68
2021/12/17 06:09:12;;;;;;;18.05;6.78;;;8.20;91.40;;;;;;4947812;28;20031;-67
2021/12/17 06:11:37;;;;;;;14.25;5.70;;;8.20;91.50;;;;;;4973831;28;20089;-67
2021/12/17 06:14:05;;;;;;;13.65;6.40;;;8.20;91.40;;;;;;4973875;28;20053;-67
2021/12/17 06:16:35;;;;;;;16.02;6.82;;;8.20;91.50;;;;;;4964358;28;20038;-67
2021/12/17 06:19:07;;;;;;;13.27;6.97;;;8.20;91.70;;;;;;4955900;28;20042;-67
2021/12/17 06:21:33;;;;;;;12.98;5.93;;;8.10;91.30;;;;;;4965489;28;20031;-67
2021/12/17 06:23:58;;;;;;;16.67;5.95;;;8.10;91.40;;;;;;4951419;28;20048;-67
2021/12/17 06:26:25;;;;;;;15.35;6.45;;;8.20;91.40;;;;;;4954074;28;20027;-67
2021/12/17 06:28:53;;;;;;;13.43;6.07;;;8.10;91.40;;;;;;4970083;28;20840;-68
2021/12/17 06:31:20;;;;;;;16.80;7.47;;;8.20;91.50;;;;;;4972907;28;20037;-68
2021/12/17 06:33:47;;;;;;;13.95;6.30;;;8.20;91.40;;;;;;4983347;28;20053;-68
2021/12/17 06:36:14;;;;;;;15.60;6.32;;;8.20;91.30;;;;;;4947023;28;20173;-67
2021/12/17 06:38:40;;;;;;;16.98;6.38;;;8.20;91.30;;;;;;4970828;28;20037;-70
2021/12/17 06:41:07;;;;;;;18.38;6.30;;;8.20;91.30;;;;;;4978271;28;20446;-68
2021/12/17 06:43:39;;;;;;;20.35;8.52;;;8.20;91.40;;;;;;4962938;28;20125;-67
2021/12/17 06:46:24;;;;;;;15.93;7.22;;;8.20;91.30;;;;;;4973699;28;20069;-67
2021/12/17 06:49:08;;;;;;;15.93;6.07;;;8.20;91.30;;;;;;4944082;28;20034;-68
2021/12/17 06:54:40;;;;;;;20.27;6.13;;;8.20;91.40;;;;;;4976329;28;20034;-68
2021/12/17 07:18:15;;;;;;;;;;;8.10;91.00;;;;;;4966854;28;20031;-69
2021/12/17 07:34:13;;;;;;;13.88;5.30;;;8.10;91.30;;;;;;4970931;28;20031;-65
2021/12/17 07:39:19;;;;;;;17.27;5.45;;;8.10;91.20;;;;;;4957610;28;20137;-65
2021/12/17 07:41:54;;;;;;;24.13;6.05;;;8.20;91.10;;;;;;4970539;28;20023;-72
2021/12/17 07:44:40;;;;;;;17.40;5.53;;;8.10;91.20;;;;;;4964028;28;20106;-71
2021/12/17 07:47:19;;;;;;;14.20;6.03;;;8.10;91.10;;;;;;4947539;28;20680;-65
2021/12/17 07:50:05;;;;;;;20.15;6.50;;;8.10;91.40;;;;;;4954173;28;20035;-65
2021/12/17 07:52:31;;;;;;;18.25;6.28;;;8.10;91.40;;;;;;4967819;28;20027;-65
2021/12/17 07:54:57;;;;;;;16.90;6.88;;;8.10;91.30;;;;;;4967598;28;20027;-65
2021/12/17 07:57:23;;;;;;;13.35;5.38;;;8.20;91.40;;;;;;4970592;28;20034;-65
2021/12/17 07:59:48;;;;;;;16.48;6.47;;;8.20;91.70;;;;;;4955970;28;20738;-68
2021/12/17 08:02:15;;;;;;;24.23;6.50;;;8.20;91.30;;;;;;4947702;28;20038;-68
2021/12/17 08:04:47;;;;;;;15.65;5.18;;;8.30;91.30;;;;;;4969282;28;20046;-68
2021/12/17 08:07:18;;;;;;;17.55;5.97;;;8.20;91.20;;;;;;4965788;28;20027;-68
2021/12/17 08:09:44;;;;;;;15.88;5.47;;;8.20;91.20;;;;;;4967063;28;20031;-68
2021/12/17 08:12:10;;;;;;;19.02;6.43;;;8.30;91.40;;;;;;4954542;28;20046;-69
2021/12/17 08:14:47;;;;;;;20.30;5.57;;;8.30;91.20;;;;;;4967674;28;20069;-69
2021/12/17 08:17:36;;;;;;;19.95;5.40;;;8.40;91.30;;;;;;4973544;28;20035;-68
2021/12/17 08:26:01;;;;;;;13.18;5.43;;;8.50;91.00;;;;;;4965003;28;20031;-67
2021/12/17 08:28:50;;;;;;;12.50;5.35;;;8.50;91.00;;;;;;4936967;28;20960;-67
2021/12/17 08:31:16;;;;;;;13.57;5.27;;;8.50;91.00;;;;;;4968439;28;20075;-68
2021/12/17 08:33:43;;;;;;;13.60;5.22;;;8.50;91.00;;;;;;4968492;28;20290;-68
2021/12/17 08:36:09;;;;;;;17.42;5.55;;;8.50;91.10;;;;;;4957527;28;20039;-68
2021/12/17 08:38:36;;;;;;;10.93;4.40;;;8.50;90.90;;;;;;4960907;28;20043;-67
2021/12/17 08:41:21;;;;;;;10.77;4.57;;;8.60;90.90;;;;;;4968977;28;20039;-69
2021/12/17 08:43:48;;;;;;;12.30;4.05;;;8.60;90.80;;;;;;4970597;28;20396;-68
2021/12/17 08:46:15;;;;;;;10.73;4.15;;;8.70;90.80;;;;;;4972056;28;20037;-69
2021/12/17 08:49:05;;;;;;;11.82;4.10;;;8.70;90.80;;;;;;4976710;28;20030;-69
2021/12/17 08:51:47;;;;;;;12.23;3.63;;;8.70;90.70;;;;;;4958578;28;20774;-69
2021/12/17 08:54:14;;;;;;;8.55;4.13;;;8.80;90.60;;;;;;4969599;28;20410;-69
2021/12/17 08:56:47;;;;;;;10.75;3.55;;;8.80;90.60;;;;;;4969583;28;20499;-70
2021/12/17 08:59:17;;;;;;;11.70;4.67;;;8.90;90.50;;;;;;4976695;28;20042;-69
2021/12/17 09:02:10;;;;;;;18.52;4.65;;;8.90;90.60;;;;;;4947034;28;20694;-69
2021/12/17 09:04:40;;;;;;;11.73;3.97;;;8.90;90.20;;;;;;4953514;28;20039;-69
2021/12/17 09:07:10;;;;;;;10.18;3.78;;;8.90;90.30;;;;;;4958956;28;20078;-68
2021/12/17 09:09:39;;;;;;;14.18;4.85;;;8.90;90.30;;;;;;4955379;28;20451;-69
2021/12/17 09:12:16;;;;;;;19.10;5.30;;;8.90;90.10;;;;;;4977164;28;20027;-69
2021/12/17 09:14:44;;;;;;;12.55;3.80;;;9.00;90.10;;;;;;4968728;28;20042;-69
2021/12/17 09:17:29;;;;;;;15.95;4.50;;;9.00;90.00;;;;;;4953149;28;20050;-69
2021/12/17 09:19:55;;;;;;;14.52;3.67;;;9.00;90.10;;;;;;4972162;28;20035;-69
2021/12/17 09:22:24;;;;;;;9.57;3.22;;;9.00;90.10;;;;;;4964847;28;20130;-69
2021/12/17 09:24:53;;;;;;;14.55;3.78;;;9.00;90.10;;;;;;4957240;28;20176;-69
2021/12/17 09:27:20;;;;;;;9.60;3.53;;;9.00;88.70;;;;;;4960498;28;20807;-69
2021/12/17 09:30:07;;;;;;;13.82;3.08;;;9.00;88.90;;;;;;4963303;28;20073;-69
2021/12/17 09:32:33;;;;;;;10.63;3.38;;;9.00;89.50;;;;;;4959075;28;20027;-69
2021/12/17 09:34:59;;;;;;;8.80;3.40;;;9.00;89.40;;;;;;4956027;28;20047;-68
2021/12/17 09:37:25;;;;;;;12.35;3.22;;;9.00;89.40;;;;;;4959942;28;20407;-69
2021/12/17 09:39:50;;;;;;;10.32;2.75;;;9.00;89.00;;;;;;4955076;28;20035;-69
2021/12/17 09:42:16;;;;;;;12.93;4.10;;;9.10;90.00;;;;;;4967142;28;20042;-69
2021/12/17 09:44:42;;;;;;;10.77;3.80;;;9.10;88.90;;;;;;4956003;28;20031;-69
2021/12/17 09:47:08;;;;;;;9.60;3.58;;;9.10;88.50;;;;;;4959003;28;20113;-71
2021/12/17 09:49:34;;;;;;;9.30;3.60;;;9.20;88.50;;;;;;4954896;28;20038;-68
2021/12/17 09:52:00;;;;;;;11.93;3.28;;;9.20;88.80;;;;;;4957752;28;20106;-68
2021/12/17 09:54:27;;;;;;;12.65;3.35;;;9.30;88.60;;;;;;4955858;28;20043;-68
2021/12/17 09:56:53;;;;;;;8.30;3.35;;;9.30;88.90;;;;;;4961379;28;20038;-68
2021/12/17 09:59:19;;;;;;;12.50;3.45;;;9.30;88.40;;;;;;4960616;28;20026;-67
2021/12/17 10:01:46;;;;;;;10.35;2.85;;;9.30;87.40;;;;;;4957904;28;20529;-68
2021/12/17 10:04:27;;;;;;;10.30;3.35;;;9.30;87.80;;;;;;4954652;28;20089;-68
2021/12/17 10:07:13;;;;;;;9.35;2.97;;;9.30;88.20;;;;;;4955583;28;20039;-68
2021/12/17 10:09:52;;;;;;;11.48;3.22;;;9.30;88.40;;;;;;4958921;28;20130;-68
2021/12/17 10:12:31;;;;;;;13.50;4.07;;;9.40;88.10;;;;;;4960962;28;20194;-68
2021/12/17 10:15:00;;;;;;;9.50;3.03;;;9.40;87.80;;;;;;4956939;28;20038;-68
2021/12/17 10:17:25;;;;;;;11.40;3.20;;;9.40;87.20;;;;;;4962034;28;20117;-68
2021/12/17 10:19:54;;;;;;;8.68;3.25;;;9.40;87.90;;;;;;4950424;28;20031;-68
2021/12/17 10:22:22;;;;;;;11.15;2.75;;;9.40;87.50;;;;;;4980136;28;20113;-68
2021/12/17 10:25:02;;;;;;;11.85;2.90;;;9.40;87.50;;;;;;4953703;28;20085;-68
2021/12/17 10:27:33;;;;;;;14.50;3.40;;;9.40;88.00;;;;;;4969601;28;20035;-68
2021/12/17 10:30:07;;;;;;;13.00;3.50;;;9.40;88.00;;;;;;4956810;28;20034;-68
2021/12/17 10:32:33;;;;;;;10.75;2.60;;;9.50;87.90;;;;;;4960485;28;20520;-68
2021/12/17 10:35:02;;;;;;;11.85;2.97;;;9.40;88.00;;;;;;4947418;28;20066;-68
2021/12/17 10:37:43;;;;;;;9.65;2.33;;;9.50;88.30;;;;;;4952038;28;20086;-68
2021/12/17 10:40:15;;;;;;;11.43;3.00;;;9.50;88.30;;;;;;4957236;28;20046;-68
2021/12/17 10:42:50;;;;;;;9.85;3.28;;;9.60;87.90;;;;;;4957239;28;20779;-68
2021/12/17 10:45:25;;;;;;;13.05;3.30;;;9.50;87.40;;;;;;4957827;28;20035;-68
2021/12/17 10:48:22;;;;;;;15.90;3.38;;;9.50;87.70;;;;;;4966842;28;20027;-68
2021/12/17 10:50:50;;;;;;;12.73;5.43;;;9.50;88.10;;;;;;4950775;28;20031;-68
2021/12/17 10:53:20;;;;;;;13.95;4.95;;;9.50;88.10;;;;;;4958119;28;20022;-68
2021/12/17 10:55:46;;;;;;;10.90;4.15;;;9.50;88.00;;;;;;4964715;28;20054;-68
2021/12/17 10:58:12;;;;;;;9.27;4.38;;;9.50;88.10;;;;;;4960901;28;20047;-68
2021/12/17 11:00:57;;;;;;;10.75;3.88;;;9.50;88.30;;;;;;4957722;28;20031;-69
2021/12/17 11:03:23;;;;;;;11.32;4.13;;;9.60;88.20;;;;;;4952451;28;20039;-69
2021/12/17 11:05:49;;;;;;;10.70;2.95;;;9.60;88.10;;;;;;4959747;28;20675;-68
2021/12/17 11:08:28;;;;;;;10.18;3.20;;;9.60;87.90;;;;;;4960889;28;20035;-68
2021/12/17 11:11:07;;;;;;;7.38;4.13;;;9.60;87.50;;;;;;4957501;28;20047;-68
2021/12/17 11:13:33;;;;;;;9.40;3.83;;;9.60;87.70;;;;;;4951594;28;20149;-68
2021/12/17 11:16:00;;;;;;;19.17;6.32;;;9.60;88.00;;;;;;4946233;28;20154;-68
2021/12/17 11:18:27;;;;;;;17.30;5.43;;;9.60;87.80;;;;;;4944888;28;20415;-67
2021/12/17 11:20:55;;;;;;;10.40;4.70;;;9.60;87.20;;;;;;4978469;28;20117;-68
2021/12/17 11:23:23;;;;;;;14.77;4.45;;;9.60;86.60;;;;;;4951824;28;20054;-68
2021/12/17 11:25:53;;;;;;;12.23;3.70;;;9.70;86.90;;;;;;4972346;28;20042;-68
2021/12/17 11:28:20;;;;;;;10.05;3.47;;;9.70;87.20;;;;;;4955451;28;20058;-68
2021/12/17 11:30:47;;;;;;;11.80;3.17;;;9.80;87.40;;;;;;4951913;28;20036;-68
2021/12/17 11:33:14;;;;;;;6.35;2.45;;;9.80;87.00;;;;;;4959427;28;20039;-68
2021/12/17 11:35:42;;;;;;;14.65;3.17;;;9.90;87.10;;;;;;4969099;28;20101;-68
2021/12/17 11:38:35;;;;;;;7.75;2.58;;;9.90;86.80;;;;;;4958931;28;20069;-68
2021/12/17 11:41:14;;;;;;;7.10;3.25;;;9.90;86.50;;;;;;4975120;28;20027;-68
2021/12/17 11:43:51;;;;;;;10.55;3.22;;;9.90;87.40;;;;;;4959818;28;20042;-68
2021/12/17 11:46:24;;;;;;;12.93;5.10;;;9.90;86.40;;;;;;4953475;28;20473;-69
2021/12/17 11:49:05;;;;;;;8.73;4.40;;;9.90;86.60;;;;;;4973485;28;20061;-69
2021/12/17 11:51:35;;;;;;;11.43;3.08;;;9.90;86.80;;;;;;4964295;28;20041;-69
2021/12/17 11:54:05;;;;;;;12.27;3.03;;;10.00;87.00;;;;;;4952227;28;20035;-69
2021/12/17 11:56:43;;;;;;;10.98;2.90;;;10.00;86.70;;;;;;4951033;28;20037;-69
2021/12/17 11:59:24;;;;;;;9.95;4.43;;;10.00;86.10;;;;;;4953660;28;20038;-69
2021/12/17 12:02:05;;;;;;;11.45;3.28;;;10.00;86.00;;;;;;4951249;28;20508;-69
2021/12/17 12:04:34;;;;;;;13.40;3.50;;;10.00;85.40;;;;;;4956571;28;20067;-70
2021/12/17 12:07:13;;;;;;;9.05;2.95;;;9.90;85.90;;;;;;4954424;28;21453;-69
2021/12/17 12:09:54;;;;;;;8.63;3.17;;;10.00;85.80;;;;;;4955337;28;20534;-69
2021/12/17 12:12:20;;;;;;;9.48;3.42;;;9.90;85.70;;;;;;4956809;28;20030;-69
2021/12/17 12:14:46;;;;;;;9.70;4.53;;;9.90;86.40;;;;;;4949518;28;20519;-69
2021/12/17 12:17:12;;;;;;;8.48;3.00;;;9.90;86.70;;;;;;4957363;28;20035;-65
2021/12/17 12:19:48;;;;;;;9.93;3.35;;;9.90;86.70;;;;;;4956554;28;20032;-69
2021/12/17 12:22:14;;;;;;;8.32;2.90;;;9.90;86.60;;;;;;4953118;28;20035;-70
2021/12/17 12:24:40;;;;;;;9.70;3.45;;;10.00;86.60;;;;;;4957945;28;20511;-70
2021/12/17 12:27:05;;;;;;;9.52;3.83;;;10.00;86.00;;;;;;4960445;28;20868;-70
2021/12/17 12:29:31;;;;;;;8.25;3.03;;;10.10;85.90;;;;;;4946149;28;20380;-70
2021/12/17 12:31:59;;;;;;;9.55;2.75;;;10.10;85.90;;;;;;4955964;28;20637;-70
2021/12/17 12:34:37;;;;;;;6.95;2.75;;;10.10;85.20;;;;;;4957046;28;20039;-69
2021/12/17 12:37:24;;;;;;;6.22;2.20;;;10.10;85.40;;;;;;4955034;28;20085;-69
2021/12/17 12:39:53;;;;;;;;;;;10.00;85.50;;;;;;4945030;28;20080;-69
2021/12/17 12:42:20;;;;;;;11.45;3.22;;;10.00;85.30;;;;;;4947197;28;19953;-69
2021/12/17 12:44:46;;;;;;;8.45;2.25;;;10.00;85.40;;;;;;4957595;28;20097;-70
2021/12/17 12:47:24;;;;;;;7.97;2.67;;;9.90;84.80;;;;;;4956913;28;20034;-69
2021/12/17 12:49:59;;;;;;;9.63;2.75;;;9.90;85.00;;;;;;4951311;28;20055;-69
2021/12/17 12:52:26;;;;;;;5.07;2.28;;;9.90;86.00;;;;;;4955360;28;20577;-69
2021/12/17 12:54:53;;;;;;;9.50;2.42;;;9.90;85.50;;;;;;4959577;28;20455;-69
2021/12/17 12:57:39;;;;;;;10.98;2.63;;;10.00;85.20;;;;;;4973973;28;20141;-70
2021/12/17 13:00:10;;;;;;;7.55;2.70;;;9.90;85.50;;;;;;4956270;28;20500;-69
2021/12/17 13:02:37;;;;;;;8.32;2.83;;;9.90;85.60;;;;;;4961105;28;20050;-69
2021/12/17 13:05:06;;;;;;;8.57;2.80;;;9.90;85.30;;;;;;4955645;28;20026;-69
2021/12/17 13:07:40;;;;;;;9.93;2.92;;;9.90;85.50;;;;;;4956867;28;20112;-67
2021/12/17 13:10:34;;;;;;;4.07;2.15;;;9.90;85.20;;;;;;4962316;28;20037;-68
2021/12/17 13:13:11;;;;;;;9.85;4.25;;;9.90;83.40;;;;;;4958372;28;20141;-70
2021/12/17 13:21:01;;;;;;;11.75;3.78;;;9.80;85.20;;;;;;4950085;28;20039;-68
2021/12/17 13:23:30;;;;;;;8.10;3.15;;;9.80;85.20;;;;;;4955807;28;20030;-67
2021/12/17 13:26:10;;;;;;;5.78;2.38;;;9.80;85.30;;;;;;4976922;28;20038;-67
2021/12/17 13:28:54;;;;;;;6.82;2.92;;;9.90;85.40;;;;;;4976262;28;20077;-67
2021/12/17 13:31:36;;;;;;;10.52;3.38;;;9.80;85.30;;;;;;4959176;28;20034;-66
2021/12/17 13:34:25;;;;;;;8.75;2.97;;;9.90;84.80;;;;;;4969495;28;20082;-68
2021/12/17 13:37:05;;;;;;;6.75;2.92;;;9.90;84.60;;;;;;4951827;28;20043;-68
2021/12/17 13:39:55;;;;;;;8.90;3.10;;;9.90;84.10;;;;;;4962017;28;20050;-68
2021/12/17 13:42:20;;;;;;;6.05;2.45;;;9.90;84.40;;;;;;4952589;28;20046;-68
2021/12/17 13:44:53;;;;;;;6.47;2.90;;;9.80;84.30;;;;;;4970796;28;20046;-67
2021/12/17 13:47:35;;;;;;;5.40;2.40;;;9.80;84.30;;;;;;4974303;28;20031;-68
2021/12/17 13:50:09;;;;;;;7.43;3.22;;;9.80;84.50;;;;;;4958824;28;20045;-67
2021/12/17 13:52:59;;;;;;;11.15;3.05;;;9.80;84.30;;;;;;4956225;28;20027;-68
2021/12/17 13:55:31;;;;;;;7.53;2.70;;;9.80;84.30;;;;;;4958230;28;20066;-67
2021/12/17 13:57:59;;;;;;;3.85;2.40;;;9.80;83.70;;;;;;4955579;28;21004;-68
2021/12/17 14:00:30;;;;;;;6.65;3.10;;;9.80;83.50;;;;;;4954146;28;20060;-67
2021/12/17 14:02:58;;;;;;;7.78;2.40;;;9.70;84.30;;;;;;4965864;28;20705;-66
2021/12/17 14:05:29;;;;;;;4.90;2.50;;;9.70;84.10;;;;;;4953705;28;20035;-67
2021/12/17 14:08:00;;;;;;;4.05;2.10;;;9.70;84.90;;;;;;4950334;28;20031;-66
2021/12/17 14:10:31;;;;;;;10.90;2.80;;;9.70;84.50;;;;;;4954392;28;20054;-66
2021/12/17 14:12:58;;;;;;;4.53;2.55;;;9.70;84.50;;;;;;4957713;28;20038;-67
2021/12/17 14:15:27;;;;;;;7.88;2.42;;;9.70;84.40;;;;;;4956507;28;20122;-68
2021/12/17 14:18:02;;;;;;;8.07;2.53;;;9.60;84.60;;;;;;4961952;28;20906;-68
2021/12/17 14:20:39;;;;;;;7.00;2.28;;;9.60;84.70;;;;;;4957021;28;20045;-68
2021/12/17 14:23:10;;;;;;;7.95;2.63;;;9.60;84.90;;;;;;4954560;28;20038;-68
2021/12/17 14:25:47;;;;;;;6.22;2.05;;;9.60;84.60;;;;;;4959120;28;20027;-67
2021/12/17 14:28:22;;;;;;;8.80;2.80;;;9.60;84.20;;;;;;4957439;28;20399;-68
2021/12/17 14:30:57;;;;;;;7.30;2.30;;;9.50;84.30;;;;;;4959531;28;20070;-67
2021/12/17 14:33:31;;;;;;;5.43;2.20;;;9.50;84.60;;;;;;4962498;28;20038;-69
2021/12/17 14:36:11;;;;;;;4.78;2.72;;;9.50;85.00;;;;;;4957972;28;20113;-69
2021/12/17 14:38:52;;;;;;;7.00;2.97;;;9.40;85.30;;;;;;4957558;28;20153;-67
2021/12/17 14:41:22;;;;;;;6.88;2.88;;;9.40;85.30;;;;;;4956746;28;20118;-67
2021/12/17 14:44:06;;;;;;;6.75;2.15;;;9.40;85.40;;;;;;4961260;28;20042;-66
2021/12/17 15:05:38;;;;;;;6.30;2.25;;;9.20;86.70;;;;;;4959186;28;20039;-67
2021/12/17 15:08:04;;;;;;;6.93;2.45;;;9.20;86.70;;;;;;4957631;28;20019;-68
2021/12/17 15:10:30;;;;;;;6.13;2.90;;;9.20;86.10;;;;;;4947921;28;20050;-65
2021/12/17 15:13:00;;;;;;;5.93;2.60;;;9.20;86.30;;;;;;4972494;28;20214;-66
2021/12/17 15:15:28;;;;;;;10.57;2.65;;;9.20;85.60;;;;;;4957568;28;20115;-66
2021/12/17 15:17:55;;;;;;;5.38;2.65;;;9.20;85.90;;;;;;4967712;28;20027;-66
2021/12/17 15:20:24;;;;;;;6.57;2.30;;;9.10;86.30;;;;;;4959500;28;20039;-65
2021/12/17 15:22:51;;;;;;;6.10;2.85;;;9.10;86.50;;;;;;4971347;28;20164;-66
2021/12/17 15:25:18;;;;;;;10.32;3.45;;;9.10;86.50;;;;;;4956433;28;20054;-66
2021/12/17 15:27:44;;;;;;;5.72;3.10;;;9.10;86.80;;;;;;4953098;28;20042;-67
2021/12/17 15:30:13;;;;;;;5.20;2.95;;;9.10;86.60;;;;;;4954367;28;20035;-65
2021/12/17 15:32:39;;;;;;;5.97;2.70;;;9.00;86.70;;;;;;4958732;28;20795;-65
2021/12/17 15:35:06;;;;;;;7.40;3.03;;;9.10;87.10;;;;;;4960380;28;20114;-65
2021/12/17 15:37:31;;;;;;;7.88;3.45;;;9.10;87.10;;;;;;4954916;28;20410;-66
2021/12/17 15:39:57;;;;;;;6.68;3.08;;;9.10;87.10;;;;;;4955281;28;20030;-65
2021/12/17 15:42:23;;;;;;;5.93;2.92;;;9.00;87.00;;;;;;4947308;28;20094;-65
2021/12/17 15:44:49;;;;;;;5.57;3.33;;;9.00;87.00;;;;;;4951351;28;20042;-63
2021/12/17 15:47:15;;;;;;;7.88;3.20;;;9.00;87.10;;;;;;4956718;28;20061;-65
2021/12/17 15:49:40;;;;;;;6.07;3.20;;;9.00;87.30;;;;;;4958249;28;20070;-65
2021/12/17 15:52:07;;;;;;;8.23;2.75;;;9.00;87.40;;;;;;4958510;28;20035;-66
2021/12/17 15:54:34;;;;;;;5.60;3.13;;;9.00;87.40;;;;;;4973003;28;20588;-67
2021/12/17 15:57:00;;;;;;;4.53;2.63;;;9.00;87.70;;;;;;4947392;28;20698;-66
2021/12/17 15:59:26;;;;;;;6.72;2.55;;;9.00;88.20;;;;;;4963618;28;20050;-66
2021/12/17 16:01:52;;;;;;;10.07;3.15;;;9.00;88.20;;;;;;4951712;28;20128;-66
2021/12/17 16:04:18;;;;;;;6.93;2.70;;;8.90;87.70;;;;;;4956075;28;20037;-67
2021/12/17 16:06:43;;;;;;;7.28;2.80;;;8.90;88.00;;;;;;4948933;28;20034;-67
2021/12/17 16:09:27;;;;;;;9.93;2.83;;;8.80;87.90;;;;;;4947577;28;20114;-68
2021/12/17 16:12:09;;;;;;;5.78;2.80;;;8.80;88.00;;;;;;4942379;28;20476;-67
2021/12/17 16:22:48;;;;;;;4.55;2.60;;;8.70;89.10;;;;;;4953662;28;20047;-68
2021/12/17 16:25:14;;;;;;;5.68;2.28;;;8.70;88.40;;;;;;4945671;28;20031;-68
2021/12/17 16:27:40;;;;;;;6.10;2.72;;;8.70;88.70;;;;;;4949737;28;20038;-67
2021/12/17 16:30:06;;;;;;;8.82;2.78;;;8.70;88.70;;;;;;4956173;28;20035;-66
2021/12/17 16:32:32;;;;;;;4.85;2.13;;;8.70;88.40;;;;;;4966771;28;20035;-67
2021/12/17 16:34:58;;;;;;;4.97;2.25;;;8.70;88.30;;;;;;4947708;28;20032;-66
2021/12/17 16:37:23;;;;;;;6.35;3.05;;;8.70;88.20;;;;;;4963801;28;20474;-66